sensor_id;sensor_type;location;lat;lon;timestamp;P1;durP1;ratioP1;P2;durP2;ratioP2
20824;SDS011;10573;50.936;6.978;2023-07-13T00:00:37;4.97;;;1.00;;
20824;SDS011;10573;50.936;6.978;2023-07-13T00:03:03;3.97;;;1.00;;
20824;SDS011;10573;50.936;6.978;2023-07-13T00:05:29;3.27;;;0.93;;
20824;SDS011;10573;50.936;6.978;2023-07-13T00:07:56;4.67;;;1.53;;
20824;SDS011;10573;50.936;6.978;2023-07-13T00:10:21;3.77;;;1.13;;
20824;SDS011;10573;50.936;6.978;2023-07-13T00:12:47;6.10;;;1.10;;
20824;SDS011;10573;50.936;6.978;2023-07-13T00:15:14;6.40;;;1.50;;
20824;SDS011;10573;50.936;6.978;2023-07-13T00:17:46;3.57;;;0.90;;
20824;SDS011;10573;50.936;6.978;2023-07-13T00:20:12;5.10;;;1.10;;
20824;SDS011;10573;50.936;6.978;2023-07-13T00:22:37;3.33;;;1.03;;
20824;SDS011;10573;50.936;6.978;2023-07-13T00:25:03;2.10;;;0.87;;
20824;SDS011;10573;50.936;6.978;2023-07-13T00:27:29;3.87;;;0.90;;
20824;SDS011;10573;50.936;6.978;2023-07-13T00:29:57;4.93;;;1.10;;
20824;SDS011;10573;50.936;6.978;2023-07-13T00:32:23;2.60;;;1.33;;
20824;SDS011;10573;50.936;6.978;2023-07-13T00:34:50;8.70;;;1.20;;
20824;SDS011;10573;50.936;6.978;2023-07-13T00:37:16;3.87;;;0.90;;
20824;SDS011;10573;50.936;6.978;2023-07-13T00:39:42;4.57;;;1.17;;
20824;SDS011;10573;50.936;6.978;2023-07-13T00:42:07;5.07;;;1.37;;
20824;SDS011;10573;50.936;6.978;2023-07-13T00:44:33;3.83;;;0.80;;
20824;SDS011;10573;50.936;6.978;2023-07-13T00:46:58;3.67;;;1.20;;
20824;SDS011;10573;50.936;6.978;2023-07-13T00:49:25;12.20;;;1.47;;
20824;SDS011;10573;50.936;6.978;2023-07-13T00:51:55;6.80;;;1.13;;
20824;SDS011;10573;50.936;6.978;2023-07-13T00:54:26;3.50;;;0.90;;
20824;SDS011;10573;50.936;6.978;2023-07-13T00:56:57;3.90;;;1.20;;
20824;SDS011;10573;50.936;6.978;2023-07-13T00:59:24;6.97;;;1.20;;
20824;SDS011;10573;50.936;6.978;2023-07-13T01:01:50;5.83;;;0.90;;
20824;SDS011;10573;50.936;6.978;2023-07-13T01:04:16;3.83;;;1.00;;
20824;SDS011;10573;50.936;6.978;2023-07-13T01:06:42;4.40;;;1.30;;
20824;SDS011;10573;50.936;6.978;2023-07-13T01:09:09;3.67;;;1.07;;
20824;SDS011;10573;50.936;6.978;2023-07-13T01:11:36;7.57;;;1.00;;
20824;SDS011;10573;50.936;6.978;2023-07-13T01:14:02;6.57;;;1.03;;
20824;SDS011;10573;50.936;6.978;2023-07-13T01:16:29;1.30;;;0.70;;
20824;SDS011;10573;50.936;6.978;2023-07-13T01:18:57;7.93;;;1.10;;
20824;SDS011;10573;50.936;6.978;2023-07-13T01:21:23;11.67;;;1.13;;
20824;SDS011;10573;50.936;6.978;2023-07-13T01:23:49;2.50;;;0.90;;
20824;SDS011;10573;50.936;6.978;2023-07-13T01:26:15;8.67;;;1.20;;
20824;SDS011;10573;50.936;6.978;2023-07-13T01:28:41;6.20;;;1.17;;
20824;SDS011;10573;50.936;6.978;2023-07-13T01:31:07;3.50;;;1.20;;
20824;SDS011;10573;50.936;6.978;2023-07-13T01:33:34;5.83;;;1.10;;
20824;SDS011;10573;50.936;6.978;2023-07-13T01:36:01;4.30;;;0.80;;
20824;SDS011;10573;50.936;6.978;2023-07-13T01:38:27;3.77;;;1.17;;
20824;SDS011;10573;50.936;6.978;2023-07-13T01:40:53;5.47;;;1.10;;
20824;SDS011;10573;50.936;6.978;2023-07-13T01:43:18;7.23;;;1.10;;
20824;SDS011;10573;50.936;6.978;2023-07-13T01:45:44;7.10;;;1.20;;
20824;SDS011;10573;50.936;6.978;2023-07-13T01:48:10;4.83;;;1.00;;
20824;SDS011;10573;50.936;6.978;2023-07-13T01:50:36;2.30;;;1.23;;
20824;SDS011;10573;50.936;6.978;2023-07-13T01:53:03;2.10;;;1.20;;
20824;SDS011;10573;50.936;6.978;2023-07-13T01:55:29;6.33;;;0.90;;
20824;SDS011;10573;50.936;6.978;2023-07-13T01:57:55;7.83;;;1.13;;
20824;SDS011;10573;50.936;6.978;2023-07-13T02:00:21;12.70;;;1.27;;
20824;SDS011;10573;50.936;6.978;2023-07-13T02:02:46;2.83;;;1.00;;
20824;SDS011;10573;50.936;6.978;2023-07-13T02:05:12;6.17;;;1.20;;
20824;SDS011;10573;50.936;6.978;2023-07-13T02:07:38;6.40;;;1.10;;
20824;SDS011;10573;50.936;6.978;2023-07-13T02:10:04;6.23;;;1.60;;
20824;SDS011;10573;50.936;6.978;2023-07-13T02:12:31;3.93;;;1.13;;
20824;SDS011;10573;50.936;6.978;2023-07-13T02:14:56;5.03;;;1.10;;
20824;SDS011;10573;50.936;6.978;2023-07-13T02:17:21;5.37;;;1.10;;
20824;SDS011;10573;50.936;6.978;2023-07-13T02:19:47;5.90;;;1.03;;
20824;SDS011;10573;50.936;6.978;2023-07-13T02:22:12;2.87;;;1.13;;
20824;SDS011;10573;50.936;6.978;2023-07-13T02:24:38;4.87;;;1.07;;
20824;SDS011;10573;50.936;6.978;2023-07-13T02:27:03;4.13;;;1.50;;
20824;SDS011;10573;50.936;6.978;2023-07-13T02:29:29;4.53;;;1.07;;
20824;SDS011;10573;50.936;6.978;2023-07-13T02:31:54;8.77;;;1.20;;
20824;SDS011;10573;50.936;6.978;2023-07-13T02:34:20;3.63;;;1.37;;
20824;SDS011;10573;50.936;6.978;2023-07-13T02:36:45;3.53;;;1.30;;
20824;SDS011;10573;50.936;6.978;2023-07-13T02:39:11;5.30;;;1.10;;
20824;SDS011;10573;50.936;6.978;2023-07-13T02:41:37;7.23;;;1.70;;
20824;SDS011;10573;50.936;6.978;2023-07-13T02:44:03;6.20;;;1.30;;
20824;SDS011;10573;50.936;6.978;2023-07-13T02:46:32;3.10;;;1.10;;
20824;SDS011;10573;50.936;6.978;2023-07-13T02:48:58;5.67;;;1.27;;
20824;SDS011;10573;50.936;6.978;2023-07-13T02:51:24;4.73;;;1.20;;
20824;SDS011;10573;50.936;6.978;2023-07-13T02:53:49;4.57;;;1.30;;
20824;SDS011;10573;50.936;6.978;2023-07-13T02:56:15;3.83;;;1.20;;
20824;SDS011;10573;50.936;6.978;2023-07-13T02:58:40;5.73;;;1.40;;
20824;SDS011;10573;50.936;6.978;2023-07-13T03:01:07;1.67;;;1.00;;
20824;SDS011;10573;50.936;6.978;2023-07-13T03:03:33;3.60;;;0.90;;
20824;SDS011;10573;50.936;6.978;2023-07-13T03:05:59;5.90;;;1.20;;
20824;SDS011;10573;50.936;6.978;2023-07-13T03:08:27;8.73;;;1.30;;
20824;SDS011;10573;50.936;6.978;2023-07-13T03:10:59;7.03;;;1.30;;
20824;SDS011;10573;50.936;6.978;2023-07-13T03:13:30;4.63;;;1.30;;
20824;SDS011;10573;50.936;6.978;2023-07-13T03:15:56;6.87;;;1.40;;
20824;SDS011;10573;50.936;6.978;2023-07-13T03:18:21;4.00;;;1.10;;
20824;SDS011;10573;50.936;6.978;2023-07-13T03:20:50;3.10;;;1.20;;
20824;SDS011;10573;50.936;6.978;2023-07-13T03:23:16;6.38;;;1.30;;
20824;SDS011;10573;50.936;6.978;2023-07-13T03:25:41;4.45;;;1.23;;
20824;SDS011;10573;50.936;6.978;2023-07-13T03:28:07;3.23;;;1.10;;
20824;SDS011;10573;50.936;6.978;2023-07-13T03:30:32;3.72;;;1.00;;
20824;SDS011;10573;50.936;6.978;2023-07-13T03:32:57;3.93;;;1.20;;
20824;SDS011;10573;50.936;6.978;2023-07-13T03:35:23;3.30;;;1.47;;
20824;SDS011;10573;50.936;6.978;2023-07-13T03:37:48;3.73;;;1.40;;
20824;SDS011;10573;50.936;6.978;2023-07-13T03:40:13;4.70;;;1.20;;
20824;SDS011;10573;50.936;6.978;2023-07-13T03:42:39;7.22;;;1.50;;
20824;SDS011;10573;50.936;6.978;2023-07-13T03:45:05;7.37;;;1.40;;
20824;SDS011;10573;50.936;6.978;2023-07-13T03:47:30;5.60;;;1.52;;
20824;SDS011;10573;50.936;6.978;2023-07-13T03:49:56;5.33;;;1.30;;
20824;SDS011;10573;50.936;6.978;2023-07-13T03:52:21;5.77;;;1.47;;
20824;SDS011;10573;50.936;6.978;2023-07-13T03:54:47;6.80;;;1.47;;
20824;SDS011;10573;50.936;6.978;2023-07-13T03:57:12;6.90;;;1.40;;
20824;SDS011;10573;50.936;6.978;2023-07-13T03:59:37;4.53;;;1.43;;
20824;SDS011;10573;50.936;6.978;2023-07-13T04:02:03;5.97;;;1.48;;
20824;SDS011;10573;50.936;6.978;2023-07-13T04:04:29;4.07;;;1.45;;
20824;SDS011;10573;50.936;6.978;2023-07-13T04:06:55;7.70;;;1.60;;
20824;SDS011;10573;50.936;6.978;2023-07-13T04:09:23;4.60;;;1.50;;
20824;SDS011;10573;50.936;6.978;2023-07-13T04:11:48;6.23;;;1.50;;
20824;SDS011;10573;50.936;6.978;2023-07-13T04:14:14;4.67;;;1.50;;
20824;SDS011;10573;50.936;6.978;2023-07-13T04:16:39;6.33;;;1.53;;
20824;SDS011;10573;50.936;6.978;2023-07-13T04:19:05;5.43;;;1.80;;
20824;SDS011;10573;50.936;6.978;2023-07-13T04:21:30;5.00;;;1.80;;
20824;SDS011;10573;50.936;6.978;2023-07-13T04:23:57;7.00;;;1.47;;
20824;SDS011;10573;50.936;6.978;2023-07-13T04:26:23;7.63;;;1.60;;
20824;SDS011;10573;50.936;6.978;2023-07-13T04:28:49;6.57;;;1.60;;
20824;SDS011;10573;50.936;6.978;2023-07-13T04:31:15;6.90;;;1.65;;
20824;SDS011;10573;50.936;6.978;2023-07-13T04:33:41;3.65;;;1.35;;
20824;SDS011;10573;50.936;6.978;2023-07-13T04:36:08;5.72;;;1.60;;
20824;SDS011;10573;50.936;6.978;2023-07-13T04:38:34;7.60;;;1.67;;
20824;SDS011;10573;50.936;6.978;2023-07-13T04:41:02;5.13;;;1.33;;
20824;SDS011;10573;50.936;6.978;2023-07-13T04:43:32;5.00;;;1.50;;
20824;SDS011;10573;50.936;6.978;2023-07-13T04:46:02;4.35;;;1.60;;
20824;SDS011;10573;50.936;6.978;2023-07-13T04:48:46;4.65;;;1.50;;
20824;SDS011;10573;50.936;6.978;2023-07-13T04:51:14;6.40;;;1.42;;
20824;SDS011;10573;50.936;6.978;2023-07-13T04:53:39;5.40;;;1.57;;
20824;SDS011;10573;50.936;6.978;2023-07-13T04:56:05;7.03;;;1.40;;
20824;SDS011;10573;50.936;6.978;2023-07-13T04:58:30;4.50;;;1.20;;
20824;SDS011;10573;50.936;6.978;2023-07-13T05:01:03;6.63;;;1.60;;
20824;SDS011;10573;50.936;6.978;2023-07-13T05:03:30;4.32;;;1.10;;
20824;SDS011;10573;50.936;6.978;2023-07-13T05:05:56;6.90;;;1.43;;
20824;SDS011;10573;50.936;6.978;2023-07-13T05:08:23;3.83;;;1.23;;
20824;SDS011;10573;50.936;6.978;2023-07-13T05:10:49;4.63;;;1.20;;
20824;SDS011;10573;50.936;6.978;2023-07-13T05:13:15;8.13;;;1.35;;
20824;SDS011;10573;50.936;6.978;2023-07-13T05:15:41;5.40;;;1.33;;
20824;SDS011;10573;50.936;6.978;2023-07-13T05:18:06;6.00;;;1.60;;
20824;SDS011;10573;50.936;6.978;2023-07-13T05:20:31;6.60;;;1.80;;
20824;SDS011;10573;50.936;6.978;2023-07-13T05:22:57;5.90;;;1.40;;
20824;SDS011;10573;50.936;6.978;2023-07-13T05:25:23;10.25;;;1.60;;
20824;SDS011;10573;50.936;6.978;2023-07-13T05:27:48;4.80;;;1.40;;
20824;SDS011;10573;50.936;6.978;2023-07-13T05:30:13;10.20;;;1.42;;
20824;SDS011;10573;50.936;6.978;2023-07-13T05:32:39;3.10;;;1.30;;
20824;SDS011;10573;50.936;6.978;2023-07-13T05:35:06;4.60;;;1.40;;
20824;SDS011;10573;50.936;6.978;2023-07-13T05:37:32;5.90;;;1.40;;
20824;SDS011;10573;50.936;6.978;2023-07-13T05:39:57;6.50;;;1.47;;
20824;SDS011;10573;50.936;6.978;2023-07-13T05:42:22;4.67;;;1.30;;
20824;SDS011;10573;50.936;6.978;2023-07-13T05:44:48;6.30;;;1.60;;
20824;SDS011;10573;50.936;6.978;2023-07-13T05:47:13;4.47;;;1.40;;
20824;SDS011;10573;50.936;6.978;2023-07-13T05:49:40;5.80;;;1.73;;
20824;SDS011;10573;50.936;6.978;2023-07-13T05:52:05;4.93;;;1.37;;
20824;SDS011;10573;50.936;6.978;2023-07-13T05:54:31;9.13;;;1.80;;
20824;SDS011;10573;50.936;6.978;2023-07-13T05:56:56;6.43;;;1.37;;
20824;SDS011;10573;50.936;6.978;2023-07-13T05:59:22;7.50;;;1.60;;
20824;SDS011;10573;50.936;6.978;2023-07-13T06:01:47;11.00;;;1.47;;
20824;SDS011;10573;50.936;6.978;2023-07-13T06:04:13;4.93;;;1.63;;
20824;SDS011;10573;50.936;6.978;2023-07-13T06:06:39;9.93;;;1.90;;
20824;SDS011;10573;50.936;6.978;2023-07-13T06:09:04;6.50;;;1.73;;
20824;SDS011;10573;50.936;6.978;2023-07-13T06:11:29;6.47;;;1.77;;
20824;SDS011;10573;50.936;6.978;2023-07-13T06:13:55;6.07;;;1.58;;
20824;SDS011;10573;50.936;6.978;2023-07-13T06:16:21;7.07;;;1.67;;
20824;SDS011;10573;50.936;6.978;2023-07-13T06:18:47;9.90;;;1.67;;
20824;SDS011;10573;50.936;6.978;2023-07-13T06:21:14;5.70;;;1.30;;
20824;SDS011;10573;50.936;6.978;2023-07-13T06:23:41;9.02;;;1.60;;
20824;SDS011;10573;50.936;6.978;2023-07-13T06:26:08;7.10;;;1.40;;
20824;SDS011;10573;50.936;6.978;2023-07-13T06:28:34;5.32;;;1.45;;
20824;SDS011;10573;50.936;6.978;2023-07-13T06:31:01;6.07;;;1.48;;
20824;SDS011;10573;50.936;6.978;2023-07-13T06:33:27;4.83;;;1.97;;
20824;SDS011;10573;50.936;6.978;2023-07-13T06:35:52;5.43;;;1.55;;
20824;SDS011;10573;50.936;6.978;2023-07-13T06:38:19;10.55;;;1.90;;
20824;SDS011;10573;50.936;6.978;2023-07-13T06:40:45;6.60;;;1.80;;
20824;SDS011;10573;50.936;6.978;2023-07-13T06:43:10;7.87;;;1.70;;
20824;SDS011;10573;50.936;6.978;2023-07-13T06:45:40;6.47;;;1.60;;
20824;SDS011;10573;50.936;6.978;2023-07-13T06:48:10;7.13;;;1.65;;
20824;SDS011;10573;50.936;6.978;2023-07-13T06:50:36;6.30;;;1.70;;
20824;SDS011;10573;50.936;6.978;2023-07-13T06:53:02;6.60;;;1.65;;
20824;SDS011;10573;50.936;6.978;2023-07-13T06:55:27;9.67;;;1.77;;
20824;SDS011;10573;50.936;6.978;2023-07-13T06:57:52;6.22;;;1.80;;
20824;SDS011;10573;50.936;6.978;2023-07-13T07:00:18;9.60;;;2.07;;
20824;SDS011;10573;50.936;6.978;2023-07-13T07:02:43;8.63;;;2.13;;
20824;SDS011;10573;50.936;6.978;2023-07-13T07:05:09;8.38;;;1.33;;
20824;SDS011;10573;50.936;6.978;2023-07-13T07:07:34;8.27;;;2.00;;
20824;SDS011;10573;50.936;6.978;2023-07-13T07:10:00;8.43;;;1.90;;
20824;SDS011;10573;50.936;6.978;2023-07-13T07:12:25;6.00;;;1.57;;
20824;SDS011;10573;50.936;6.978;2023-07-13T07:14:51;5.80;;;1.65;;
20824;SDS011;10573;50.936;6.978;2023-07-13T07:17:16;6.53;;;1.50;;
20824;SDS011;10573;50.936;6.978;2023-07-13T07:19:42;8.53;;;1.90;;
20824;SDS011;10573;50.936;6.978;2023-07-13T07:22:07;7.80;;;1.63;;
20824;SDS011;10573;50.936;6.978;2023-07-13T07:24:32;9.57;;;1.90;;
20824;SDS011;10573;50.936;6.978;2023-07-13T07:26:58;6.87;;;1.63;;
20824;SDS011;10573;50.936;6.978;2023-07-13T07:29:23;4.82;;;1.75;;
20824;SDS011;10573;50.936;6.978;2023-07-13T07:31:51;5.65;;;1.60;;
20824;SDS011;10573;50.936;6.978;2023-07-13T07:34:17;6.47;;;1.52;;
20824;SDS011;10573;50.936;6.978;2023-07-13T07:36:42;4.57;;;1.58;;
20824;SDS011;10573;50.936;6.978;2023-07-13T07:39:08;8.37;;;1.80;;
20824;SDS011;10573;50.936;6.978;2023-07-13T07:41:33;6.60;;;1.40;;
20824;SDS011;10573;50.936;6.978;2023-07-13T07:43:59;7.28;;;1.60;;
20824;SDS011;10573;50.936;6.978;2023-07-13T07:46:24;10.43;;;1.70;;
20824;SDS011;10573;50.936;6.978;2023-07-13T07:48:50;6.07;;;1.80;;
20824;SDS011;10573;50.936;6.978;2023-07-13T07:51:15;7.97;;;1.58;;
20824;SDS011;10573;50.936;6.978;2023-07-13T07:53:41;6.47;;;2.00;;
20824;SDS011;10573;50.936;6.978;2023-07-13T07:56:07;7.25;;;1.77;;
20824;SDS011;10573;50.936;6.978;2023-07-13T07:58:33;8.77;;;1.80;;
20824;SDS011;10573;50.936;6.978;2023-07-13T08:01:05;6.60;;;1.90;;
20824;SDS011;10573;50.936;6.978;2023-07-13T08:03:31;9.18;;;1.92;;
20824;SDS011;10573;50.936;6.978;2023-07-13T08:05:56;8.80;;;2.07;;
20824;SDS011;10573;50.936;6.978;2023-07-13T08:08:21;6.77;;;1.80;;
20824;SDS011;10573;50.936;6.978;2023-07-13T08:10:47;6.20;;;1.50;;
20824;SDS011;10573;50.936;6.978;2023-07-13T08:13:13;4.97;;;1.50;;
20824;SDS011;10573;50.936;6.978;2023-07-13T08:15:38;7.03;;;1.50;;
20824;SDS011;10573;50.936;6.978;2023-07-13T08:18:03;6.35;;;1.83;;
20824;SDS011;10573;50.936;6.978;2023-07-13T08:20:29;8.87;;;1.50;;
20824;SDS011;10573;50.936;6.978;2023-07-13T08:22:54;9.73;;;2.20;;
20824;SDS011;10573;50.936;6.978;2023-07-13T08:25:20;6.40;;;1.67;;
20824;SDS011;10573;50.936;6.978;2023-07-13T08:27:46;7.73;;;1.80;;
20824;SDS011;10573;50.936;6.978;2023-07-13T08:30:12;8.10;;;1.95;;
20824;SDS011;10573;50.936;6.978;2023-07-13T08:32:38;7.10;;;1.60;;
20824;SDS011;10573;50.936;6.978;2023-07-13T08:35:04;6.07;;;1.95;;
20824;SDS011;10573;50.936;6.978;2023-07-13T08:37:30;8.88;;;1.80;;
20824;SDS011;10573;50.936;6.978;2023-07-13T08:39:56;6.67;;;1.70;;
20824;SDS011;10573;50.936;6.978;2023-07-13T08:42:28;6.00;;;1.70;;
20824;SDS011;10573;50.936;6.978;2023-07-13T08:47:25;6.83;;;1.60;;
20824;SDS011;10573;50.936;6.978;2023-07-13T08:49:51;5.20;;;1.40;;
20824;SDS011;10573;50.936;6.978;2023-07-13T08:54:50;6.55;;;1.70;;
20824;SDS011;10573;50.936;6.978;2023-07-13T08:57:19;8.02;;;1.58;;
20824;SDS011;10573;50.936;6.978;2023-07-13T08:59:49;5.28;;;1.55;;
20824;SDS011;10573;50.936;6.978;2023-07-13T09:15:30;7.28;;;1.92;;
20824;SDS011;10573;50.936;6.978;2023-07-13T09:18:11;6.53;;;1.50;;
20824;SDS011;10573;50.936;6.978;2023-07-13T09:20:42;8.48;;;1.58;;
20824;SDS011;10573;50.936;6.978;2023-07-13T09:23:14;8.83;;;1.70;;
20824;SDS011;10573;50.936;6.978;2023-07-13T09:25:43;5.83;;;1.63;;
20824;SDS011;10573;50.936;6.978;2023-07-13T09:28:17;4.72;;;1.35;;
20824;SDS011;10573;50.936;6.978;2023-07-13T09:31:11;6.95;;;1.67;;
20824;SDS011;10573;50.936;6.978;2023-07-13T09:33:41;7.50;;;1.60;;
20824;SDS011;10573;50.936;6.978;2023-07-13T09:36:17;9.13;;;1.70;;
20824;SDS011;10573;50.936;6.978;2023-07-13T09:38:45;5.75;;;1.50;;
20824;SDS011;10573;50.936;6.978;2023-07-13T09:41:21;5.15;;;1.58;;
20824;SDS011;10573;50.936;6.978;2023-07-13T09:46:34;5.93;;;1.45;;
20824;SDS011;10573;50.936;6.978;2023-07-13T09:48:59;6.35;;;1.77;;
20824;SDS011;10573;50.936;6.978;2023-07-13T09:51:25;4.72;;;1.45;;
20824;SDS011;10573;50.936;6.978;2023-07-13T09:53:50;4.77;;;1.20;;
20824;SDS011;10573;50.936;6.978;2023-07-13T09:56:34;5.97;;;1.60;;
20824;SDS011;10573;50.936;6.978;2023-07-13T09:58:59;4.70;;;1.30;;
20824;SDS011;10573;50.936;6.978;2023-07-13T10:01:35;5.17;;;1.40;;
20824;SDS011;10573;50.936;6.978;2023-07-13T10:04:10;2.83;;;1.20;;
20824;SDS011;10573;50.936;6.978;2023-07-13T10:06:38;3.00;;;1.00;;
20824;SDS011;10573;50.936;6.978;2023-07-13T10:09:06;4.03;;;1.23;;
20824;SDS011;10573;50.936;6.978;2023-07-13T10:11:34;5.43;;;1.20;;
20824;SDS011;10573;50.936;6.978;2023-07-13T10:14:09;5.22;;;1.13;;
20824;SDS011;10573;50.936;6.978;2023-07-13T10:16:44;7.40;;;1.45;;
20824;SDS011;10573;50.936;6.978;2023-07-13T10:19:24;4.57;;;1.05;;
20824;SDS011;10573;50.936;6.978;2023-07-13T10:24:25;5.07;;;1.33;;
20824;SDS011;10573;50.936;6.978;2023-07-13T10:29:29;6.55;;;1.60;;
20824;SDS011;10573;50.936;6.978;2023-07-13T10:32:00;7.45;;;1.60;;
20824;SDS011;10573;50.936;6.978;2023-07-13T10:34:25;6.07;;;1.27;;
20824;SDS011;10573;50.936;6.978;2023-07-13T10:36:52;6.87;;;1.43;;
20824;SDS011;10573;50.936;6.978;2023-07-13T10:39:21;4.33;;;1.10;;
20824;SDS011;10573;50.936;6.978;2023-07-13T10:41:50;5.27;;;1.57;;
20824;SDS011;10573;50.936;6.978;2023-07-13T10:44:29;5.22;;;1.30;;
20824;SDS011;10573;50.936;6.978;2023-07-13T10:47:00;3.08;;;1.20;;
20824;SDS011;10573;50.936;6.978;2023-07-13T10:49:28;7.15;;;1.45;;
20824;SDS011;10573;50.936;6.978;2023-07-13T10:51:56;8.27;;;1.38;;
20824;SDS011;10573;50.936;6.978;2023-07-13T11:00:30;4.80;;;1.40;;
20824;SDS011;10573;50.936;6.978;2023-07-13T11:02:35;6.18;;;1.58;;
20824;SDS011;10573;50.936;6.978;2023-07-13T11:05:12;3.40;;;1.08;;
20824;SDS011;10573;50.936;6.978;2023-07-13T11:10:49;3.05;;;1.10;;
20824;SDS011;10573;50.936;6.978;2023-07-13T11:16:11;9.48;;;1.83;;
20824;SDS011;10573;50.936;6.978;2023-07-13T11:21:30;8.07;;;1.80;;
20824;SDS011;10573;50.936;6.978;2023-07-13T11:24:16;6.07;;;1.40;;
20824;SDS011;10573;50.936;6.978;2023-07-13T11:31:43;5.87;;;1.40;;
20824;SDS011;10573;50.936;6.978;2023-07-13T11:34:16;5.20;;;1.50;;
20824;SDS011;10573;50.936;6.978;2023-07-13T11:36:46;5.28;;;1.45;;
20824;SDS011;10573;50.936;6.978;2023-07-13T11:39:24;4.35;;;1.30;;
20824;SDS011;10573;50.936;6.978;2023-07-13T11:41:57;3.10;;;1.10;;
20824;SDS011;10573;50.936;6.978;2023-07-13T11:44:26;4.65;;;1.38;;
20824;SDS011;10573;50.936;6.978;2023-07-13T11:46:55;5.93;;;1.20;;
20824;SDS011;10573;50.936;6.978;2023-07-13T11:49:28;4.63;;;1.48;;
20824;SDS011;10573;50.936;6.978;2023-07-13T11:51:55;5.80;;;1.80;;
20824;SDS011;10573;50.936;6.978;2023-07-13T11:54:27;5.05;;;1.50;;
20824;SDS011;10573;50.936;6.978;2023-07-13T11:57:03;8.60;;;1.55;;
20824;SDS011;10573;50.936;6.978;2023-07-13T11:59:38;8.70;;;1.60;;
20824;SDS011;10573;50.936;6.978;2023-07-13T12:02:08;7.55;;;1.45;;
20824;SDS011;10573;50.936;6.978;2023-07-13T12:04:42;7.15;;;1.60;;
20824;SDS011;10573;50.936;6.978;2023-07-13T12:07:14;5.25;;;1.80;;
20824;SDS011;10573;50.936;6.978;2023-07-13T12:09:41;5.78;;;1.27;;
20824;SDS011;10573;50.936;6.978;2023-07-13T12:12:13;4.28;;;1.20;;
20824;SDS011;10573;50.936;6.978;2023-07-13T12:14:43;4.20;;;1.48;;
20824;SDS011;10573;50.936;6.978;2023-07-13T12:17:30;4.30;;;1.25;;
20824;SDS011;10573;50.936;6.978;2023-07-13T12:19:54;6.57;;;1.40;;
20824;SDS011;10573;50.936;6.978;2023-07-13T12:22:20;4.70;;;1.40;;
20824;SDS011;10573;50.936;6.978;2023-07-13T12:24:46;6.00;;;1.30;;
20824;SDS011;10573;50.936;6.978;2023-07-13T12:27:24;7.35;;;1.40;;
20824;SDS011;10573;50.936;6.978;2023-07-13T12:29:52;3.60;;;1.17;;
20824;SDS011;10573;50.936;6.978;2023-07-13T12:32:24;4.47;;;1.10;;
20824;SDS011;10573;50.936;6.978;2023-07-13T12:35:38;4.80;;;1.23;;
20824;SDS011;10573;50.936;6.978;2023-07-13T12:37:43;7.00;;;1.53;;
20824;SDS011;10573;50.936;6.978;2023-07-13T12:40:13;4.15;;;1.40;;
20824;SDS011;10573;50.936;6.978;2023-07-13T12:42:48;2.23;;;1.10;;
20824;SDS011;10573;50.936;6.978;2023-07-13T12:45:20;7.65;;;1.42;;
20824;SDS011;10573;50.936;6.978;2023-07-13T12:47:53;4.65;;;1.20;;
20824;SDS011;10573;50.936;6.978;2023-07-13T12:50:27;7.25;;;1.27;;
20824;SDS011;10573;50.936;6.978;2023-07-13T12:52:56;5.78;;;1.02;;
20824;SDS011;10573;50.936;6.978;2023-07-13T12:55:28;3.80;;;1.10;;
20824;SDS011;10573;50.936;6.978;2023-07-13T12:57:57;3.35;;;1.00;;
20824;SDS011;10573;50.936;6.978;2023-07-13T13:02:50;6.30;;;1.07;;
20824;SDS011;10573;50.936;6.978;2023-07-13T13:05:19;4.03;;;1.20;;
20824;SDS011;10573;50.936;6.978;2023-07-13T13:07:45;4.20;;;1.30;;
20824;SDS011;10573;50.936;6.978;2023-07-13T13:10:13;3.70;;;1.08;;
20824;SDS011;10573;50.936;6.978;2023-07-13T13:12:39;5.72;;;1.13;;
20824;SDS011;10573;50.936;6.978;2023-07-13T13:15:07;4.18;;;1.15;;
20824;SDS011;10573;50.936;6.978;2023-07-13T13:17:34;3.37;;;1.10;;
20824;SDS011;10573;50.936;6.978;2023-07-13T13:19:59;4.90;;;1.10;;
20824;SDS011;10573;50.936;6.978;2023-07-13T13:22:25;3.50;;;0.90;;
20824;SDS011;10573;50.936;6.978;2023-07-13T13:24:50;5.70;;;0.90;;
20824;SDS011;10573;50.936;6.978;2023-07-13T13:27:19;4.30;;;1.03;;
20824;SDS011;10573;50.936;6.978;2023-07-13T13:29:48;3.03;;;0.90;;
20824;SDS011;10573;50.936;6.978;2023-07-13T13:32:18;3.10;;;0.80;;
20824;SDS011;10573;50.936;6.978;2023-07-13T13:34:44;2.92;;;0.95;;
20824;SDS011;10573;50.936;6.978;2023-07-13T13:37:17;5.38;;;0.90;;
20824;SDS011;10573;50.936;6.978;2023-07-13T13:39:45;6.90;;;1.00;;
20824;SDS011;10573;50.936;6.978;2023-07-13T13:42:12;6.38;;;1.08;;
20824;SDS011;10573;50.936;6.978;2023-07-13T13:44:38;3.45;;;1.10;;
20824;SDS011;10573;50.936;6.978;2023-07-13T13:47:03;4.30;;;1.03;;
20824;SDS011;10573;50.936;6.978;2023-07-13T13:49:29;3.00;;;0.90;;
20824;SDS011;10573;50.936;6.978;2023-07-13T13:51:55;4.65;;;1.10;;
20824;SDS011;10573;50.936;6.978;2023-07-13T13:54:22;3.58;;;1.10;;
20824;SDS011;10573;50.936;6.978;2023-07-13T13:56:51;4.83;;;1.17;;
20824;SDS011;10573;50.936;6.978;2023-07-13T13:59:18;3.10;;;0.95;;
20824;SDS011;10573;50.936;6.978;2023-07-13T14:01:44;4.15;;;1.10;;
20824;SDS011;10573;50.936;6.978;2023-07-13T14:04:13;5.80;;;1.05;;
20824;SDS011;10573;50.936;6.978;2023-07-13T14:06:42;3.75;;;1.00;;
20824;SDS011;10573;50.936;6.978;2023-07-13T14:09:14;4.72;;;1.10;;
20824;SDS011;10573;50.936;6.978;2023-07-13T14:11:41;3.83;;;0.85;;
20824;SDS011;10573;50.936;6.978;2023-07-13T14:14:08;3.97;;;1.10;;
20824;SDS011;10573;50.936;6.978;2023-07-13T14:16:47;5.55;;;1.45;;
20824;SDS011;10573;50.936;6.978;2023-07-13T14:19:18;4.35;;;1.13;;
20824;SDS011;10573;50.936;6.978;2023-07-13T14:21:44;4.72;;;1.00;;
20824;SDS011;10573;50.936;6.978;2023-07-13T14:24:10;3.17;;;1.07;;
20824;SDS011;10573;50.936;6.978;2023-07-13T14:26:37;2.37;;;0.90;;
20824;SDS011;10573;50.936;6.978;2023-07-13T14:29:04;4.80;;;1.05;;
20824;SDS011;10573;50.936;6.978;2023-07-13T14:31:36;4.20;;;1.20;;
20824;SDS011;10573;50.936;6.978;2023-07-13T14:34:02;4.47;;;1.10;;
20824;SDS011;10573;50.936;6.978;2023-07-13T14:36:28;3.13;;;1.20;;
20824;SDS011;10573;50.936;6.978;2023-07-13T14:38:54;3.70;;;0.80;;
20824;SDS011;10573;50.936;6.978;2023-07-13T14:41:21;4.57;;;1.17;;
20824;SDS011;10573;50.936;6.978;2023-07-13T14:43:47;4.33;;;1.00;;
20824;SDS011;10573;50.936;6.978;2023-07-13T14:46:27;4.90;;;1.10;;
20824;SDS011;10573;50.936;6.978;2023-07-13T14:48:57;2.40;;;0.85;;
20824;SDS011;10573;50.936;6.978;2023-07-13T14:51:26;3.00;;;0.97;;
20824;SDS011;10573;50.936;6.978;2023-07-13T14:53:52;3.72;;;1.02;;
20824;SDS011;10573;50.936;6.978;2023-07-13T14:56:17;3.47;;;1.00;;
20824;SDS011;10573;50.936;6.978;2023-07-13T14:58:43;4.37;;;1.03;;
20824;SDS011;10573;50.936;6.978;2023-07-13T15:01:12;4.83;;;1.00;;
20824;SDS011;10573;50.936;6.978;2023-07-13T15:03:44;3.80;;;1.00;;
20824;SDS011;10573;50.936;6.978;2023-07-13T15:06:11;4.25;;;1.10;;
20824;SDS011;10573;50.936;6.978;2023-07-13T15:08:38;3.42;;;1.00;;
20824;SDS011;10573;50.936;6.978;2023-07-13T15:11:06;4.28;;;1.30;;
20824;SDS011;10573;50.936;6.978;2023-07-13T15:13:38;4.03;;;1.13;;
20824;SDS011;10573;50.936;6.978;2023-07-13T15:16:05;5.23;;;1.17;;
20824;SDS011;10573;50.936;6.978;2023-07-13T15:18:43;8.55;;;1.08;;
20824;SDS011;10573;50.936;6.978;2023-07-13T15:21:10;6.57;;;1.10;;
20824;SDS011;10573;50.936;6.978;2023-07-13T15:23:45;3.58;;;1.10;;
20824;SDS011;10573;50.936;6.978;2023-07-13T15:26:12;5.70;;;1.00;;
20824;SDS011;10573;50.936;6.978;2023-07-13T15:28:39;5.17;;;1.27;;
20824;SDS011;10573;50.936;6.978;2023-07-13T15:31:11;6.25;;;1.20;;
20824;SDS011;10573;50.936;6.978;2023-07-13T15:33:44;7.03;;;1.38;;
20824;SDS011;10573;50.936;6.978;2023-07-13T15:36:09;3.17;;;1.00;;
20824;SDS011;10573;50.936;6.978;2023-07-13T15:38:35;4.65;;;1.10;;